sensor_id;sensor_type;location;lat;lon;timestamp;P1;durP1;ratioP1;P2;durP2;ratioP2
56481;SDS011;42384;45.186;19.958;2024-02-15T00:02:23;10.53;;;7.07;;
56481;SDS011;42384;45.186;19.958;2024-02-15T00:04:49;9.00;;;6.07;;
56481;SDS011;42384;45.186;19.958;2024-02-15T00:07:15;12.30;;;6.37;;
56481;SDS011;42384;45.186;19.958;2024-02-15T00:09:42;10.65;;;6.00;;
56481;SDS011;42384;45.186;19.958;2024-02-15T00:12:08;15.10;;;7.77;;
56481;SDS011;42384;45.186;19.958;2024-02-15T00:14:35;9.73;;;5.97;;
56481;SDS011;42384;45.186;19.958;2024-02-15T00:17:03;8.75;;;5.72;;
56481;SDS011;42384;45.186;19.958;2024-02-15T00:19:30;10.27;;;5.83;;
56481;SDS011;42384;45.186;19.958;2024-02-15T00:21:56;11.15;;;6.03;;
56481;SDS011;42384;45.186;19.958;2024-02-15T00:24:22;8.97;;;6.37;;
56481;SDS011;42384;45.186;19.958;2024-02-15T00:26:52;10.32;;;5.43;;
56481;SDS011;42384;45.186;19.958;2024-02-15T00:29:19;11.95;;;6.20;;
56481;SDS011;42384;45.186;19.958;2024-02-15T00:31:45;9.73;;;5.47;;
56481;SDS011;42384;45.186;19.958;2024-02-15T00:34:12;8.85;;;5.72;;
56481;SDS011;42384;45.186;19.958;2024-02-15T00:36:41;9.17;;;5.70;;
56481;SDS011;42384;45.186;19.958;2024-02-15T00:39:09;10.43;;;5.90;;
56481;SDS011;42384;45.186;19.958;2024-02-15T00:41:37;9.00;;;5.07;;
56481;SDS011;42384;45.186;19.958;2024-02-15T00:44:07;7.05;;;4.82;;
56481;SDS011;42384;45.186;19.958;2024-02-15T00:46:33;10.07;;;5.32;;
56481;SDS011;42384;45.186;19.958;2024-02-15T00:49:01;8.25;;;4.75;;
56481;SDS011;42384;45.186;19.958;2024-02-15T00:51:27;8.57;;;5.37;;
56481;SDS011;42384;45.186;19.958;2024-02-15T00:53:53;10.85;;;4.80;;
56481;SDS011;42384;45.186;19.958;2024-02-15T00:56:19;10.55;;;4.45;;
56481;SDS011;42384;45.186;19.958;2024-02-15T00:58:47;7.65;;;4.32;;
56481;SDS011;42384;45.186;19.958;2024-02-15T01:01:13;8.45;;;4.63;;
56481;SDS011;42384;45.186;19.958;2024-02-15T01:03:40;7.90;;;4.57;;
56481;SDS011;42384;45.186;19.958;2024-02-15T01:06:06;8.05;;;4.68;;
56481;SDS011;42384;45.186;19.958;2024-02-15T01:08:33;9.02;;;4.70;;
56481;SDS011;42384;45.186;19.958;2024-02-15T01:11:00;11.05;;;4.97;;
56481;SDS011;42384;45.186;19.958;2024-02-15T01:13:26;9.30;;;4.65;;
56481;SDS011;42384;45.186;19.958;2024-02-15T01:15:52;8.45;;;4.30;;
56481;SDS011;42384;45.186;19.958;2024-02-15T01:18:18;11.43;;;5.32;;
56481;SDS011;42384;45.186;19.958;2024-02-15T01:20:44;7.45;;;4.68;;
56481;SDS011;42384;45.186;19.958;2024-02-15T01:23:10;7.72;;;4.75;;
56481;SDS011;42384;45.186;19.958;2024-02-15T01:25:37;11.25;;;6.00;;
56481;SDS011;42384;45.186;19.958;2024-02-15T01:28:05;9.73;;;5.53;;
56481;SDS011;42384;45.186;19.958;2024-02-15T01:30:31;9.73;;;5.37;;
56481;SDS011;42384;45.186;19.958;2024-02-15T01:32:57;11.35;;;6.63;;
56481;SDS011;42384;45.186;19.958;2024-02-15T01:35:24;9.93;;;5.55;;
56481;SDS011;42384;45.186;19.958;2024-02-15T01:40:17;12.32;;;5.95;;
56481;SDS011;42384;45.186;19.958;2024-02-15T01:42:46;10.88;;;6.03;;
56481;SDS011;42384;45.186;19.958;2024-02-15T01:45:15;11.05;;;6.25;;
56481;SDS011;42384;45.186;19.958;2024-02-15T01:47:41;11.88;;;6.18;;
56481;SDS011;42384;45.186;19.958;2024-02-15T01:50:11;9.93;;;6.03;;
56481;SDS011;42384;45.186;19.958;2024-02-15T01:52:39;10.40;;;6.05;;
56481;SDS011;42384;45.186;19.958;2024-02-15T01:55:07;12.27;;;5.80;;
56481;SDS011;42384;45.186;19.958;2024-02-15T01:57:38;11.25;;;5.85;;
56481;SDS011;42384;45.186;19.958;2024-02-15T02:00:06;8.55;;;5.15;;
56481;SDS011;42384;45.186;19.958;2024-02-15T02:02:36;11.48;;;5.50;;
56481;SDS011;42384;45.186;19.958;2024-02-15T02:05:05;12.32;;;6.68;;
56481;SDS011;42384;45.186;19.958;2024-02-15T02:07:33;11.55;;;6.72;;
56481;SDS011;42384;45.186;19.958;2024-02-15T02:10:00;18.55;;;7.50;;
56481;SDS011;42384;45.186;19.958;2024-02-15T02:12:27;11.70;;;7.18;;
56481;SDS011;42384;45.186;19.958;2024-02-15T02:14:54;14.15;;;7.63;;
56481;SDS011;42384;45.186;19.958;2024-02-15T02:17:22;11.23;;;6.97;;
56481;SDS011;42384;45.186;19.958;2024-02-15T02:19:48;14.65;;;7.80;;
56481;SDS011;42384;45.186;19.958;2024-02-15T02:22:15;14.15;;;7.75;;
56481;SDS011;42384;45.186;19.958;2024-02-15T02:27:34;12.15;;;7.60;;
56481;SDS011;42384;45.186;19.958;2024-02-15T02:30:04;14.40;;;7.65;;
56481;SDS011;42384;45.186;19.958;2024-02-15T02:32:35;15.93;;;8.68;;
56481;SDS011;42384;45.186;19.958;2024-02-15T02:35:02;12.83;;;7.37;;
56481;SDS011;42384;45.186;19.958;2024-02-15T02:40:28;14.18;;;7.57;;
56481;SDS011;42384;45.186;19.958;2024-02-15T02:45:22;14.77;;;6.95;;
56481;SDS011;42384;45.186;19.958;2024-02-15T02:47:50;11.18;;;7.53;;
56481;SDS011;42384;45.186;19.958;2024-02-15T02:50:16;10.48;;;6.90;;
56481;SDS011;42384;45.186;19.958;2024-02-15T02:52:43;13.60;;;7.10;;
56481;SDS011;42384;45.186;19.958;2024-02-15T02:55:10;12.18;;;7.43;;
56481;SDS011;42384;45.186;19.958;2024-02-15T02:57:38;11.27;;;6.88;;
56481;SDS011;42384;45.186;19.958;2024-02-15T03:00:06;11.93;;;7.53;;
56481;SDS011;42384;45.186;19.958;2024-02-15T03:02:38;14.60;;;7.07;;
56481;SDS011;42384;45.186;19.958;2024-02-15T03:05:05;13.60;;;7.32;;
56481;SDS011;42384;45.186;19.958;2024-02-15T03:07:34;13.98;;;7.32;;
56481;SDS011;42384;45.186;19.958;2024-02-15T03:10:02;12.77;;;6.88;;
56481;SDS011;42384;45.186;19.958;2024-02-15T03:12:37;10.88;;;7.03;;
56481;SDS011;42384;45.186;19.958;2024-02-15T03:15:04;12.98;;;7.10;;
56481;SDS011;42384;45.186;19.958;2024-02-15T03:17:37;10.00;;;6.45;;
56481;SDS011;42384;45.186;19.958;2024-02-15T03:20:06;11.75;;;6.38;;
56481;SDS011;42384;45.186;19.958;2024-02-15T03:22:54;12.45;;;6.43;;
56481;SDS011;42384;45.186;19.958;2024-02-15T03:25:21;12.00;;;6.57;;
56481;SDS011;42384;45.186;19.958;2024-02-15T03:27:51;16.20;;;8.05;;
56481;SDS011;42384;45.186;19.958;2024-02-15T03:32:47;13.55;;;6.72;;
56481;SDS011;42384;45.186;19.958;2024-02-15T03:35:17;17.45;;;8.25;;
56481;SDS011;42384;45.186;19.958;2024-02-15T03:40:09;13.48;;;7.60;;
56481;SDS011;42384;45.186;19.958;2024-02-15T03:42:35;12.30;;;7.17;;
56481;SDS011;42384;45.186;19.958;2024-02-15T03:45:02;11.07;;;6.53;;
56481;SDS011;42384;45.186;19.958;2024-02-15T03:47:34;11.30;;;5.72;;
56481;SDS011;42384;45.186;19.958;2024-02-15T03:50:07;10.20;;;6.07;;
56481;SDS011;42384;45.186;19.958;2024-02-15T03:52:37;11.75;;;6.47;;
56481;SDS011;42384;45.186;19.958;2024-02-15T03:55:04;11.48;;;5.97;;
56481;SDS011;42384;45.186;19.958;2024-02-15T03:57:30;9.75;;;5.85;;
56481;SDS011;42384;45.186;19.958;2024-02-15T03:59:57;14.23;;;6.32;;
56481;SDS011;42384;45.186;19.958;2024-02-15T04:02:24;12.33;;;6.03;;
56481;SDS011;42384;45.186;19.958;2024-02-15T04:04:55;13.45;;;6.55;;
56481;SDS011;42384;45.186;19.958;2024-02-15T04:09:52;9.48;;;5.50;;
56481;SDS011;42384;45.186;19.958;2024-02-15T04:12:18;11.98;;;6.63;;
56481;SDS011;42384;45.186;19.958;2024-02-15T04:14:45;9.93;;;5.78;;
56481;SDS011;42384;45.186;19.958;2024-02-15T04:17:13;10.13;;;6.13;;
56481;SDS011;42384;45.186;19.958;2024-02-15T04:19:44;11.57;;;5.78;;
56481;SDS011;42384;45.186;19.958;2024-02-15T04:22:12;9.10;;;5.28;;
56481;SDS011;42384;45.186;19.958;2024-02-15T04:24:42;11.18;;;5.72;;
56481;SDS011;42384;45.186;19.958;2024-02-15T04:27:11;14.95;;;5.43;;
56481;SDS011;42384;45.186;19.958;2024-02-15T04:29:40;14.75;;;6.45;;
56481;SDS011;42384;45.186;19.958;2024-02-15T04:32:10;9.10;;;5.72;;
56481;SDS011;42384;45.186;19.958;2024-02-15T04:34:38;8.50;;;5.50;;
56481;SDS011;42384;45.186;19.958;2024-02-15T04:37:05;13.48;;;5.32;;
56481;SDS011;42384;45.186;19.958;2024-02-15T04:39:33;10.93;;;5.60;;
56481;SDS011;42384;45.186;19.958;2024-02-15T04:42:01;10.45;;;5.60;;
56481;SDS011;42384;45.186;19.958;2024-02-15T04:44:27;11.13;;;5.80;;
56481;SDS011;42384;45.186;19.958;2024-02-15T04:46:54;9.18;;;5.18;;
56481;SDS011;42384;45.186;19.958;2024-02-15T04:49:21;11.05;;;5.05;;
56481;SDS011;42384;45.186;19.958;2024-02-15T04:51:48;9.15;;;5.07;;
56481;SDS011;42384;45.186;19.958;2024-02-15T04:54:14;8.15;;;5.43;;
56481;SDS011;42384;45.186;19.958;2024-02-15T04:56:41;11.27;;;5.68;;
56481;SDS011;42384;45.186;19.958;2024-02-15T04:59:08;9.52;;;5.22;;
56481;SDS011;42384;45.186;19.958;2024-02-15T05:01:40;10.25;;;5.40;;
56481;SDS011;42384;45.186;19.958;2024-02-15T05:04:10;10.10;;;5.35;;
56481;SDS011;42384;45.186;19.958;2024-02-15T05:06:37;8.35;;;4.95;;
56481;SDS011;42384;45.186;19.958;2024-02-15T05:09:04;9.73;;;5.45;;
56481;SDS011;42384;45.186;19.958;2024-02-15T05:11:39;11.40;;;5.43;;
56481;SDS011;42384;45.186;19.958;2024-02-15T05:14:15;10.23;;;4.85;;
56481;SDS011;42384;45.186;19.958;2024-02-15T05:16:45;9.70;;;5.03;;
56481;SDS011;42384;45.186;19.958;2024-02-15T05:19:14;15.25;;;5.75;;
56481;SDS011;42384;45.186;19.958;2024-02-15T05:21:41;10.55;;;5.68;;
56481;SDS011;42384;45.186;19.958;2024-02-15T05:24:10;9.55;;;5.68;;
56481;SDS011;42384;45.186;19.958;2024-02-15T05:26:37;9.40;;;4.35;;
56481;SDS011;42384;45.186;19.958;2024-02-15T05:29:03;9.03;;;5.60;;
56481;SDS011;42384;45.186;19.958;2024-02-15T05:31:30;11.50;;;5.45;;
56481;SDS011;42384;45.186;19.958;2024-02-15T05:33:56;10.38;;;5.35;;
56481;SDS011;42384;45.186;19.958;2024-02-15T05:36:23;10.40;;;4.60;;
56481;SDS011;42384;45.186;19.958;2024-02-15T05:38:53;8.80;;;5.03;;
56481;SDS011;42384;45.186;19.958;2024-02-15T05:41:20;10.27;;;4.95;;
56481;SDS011;42384;45.186;19.958;2024-02-15T05:43:47;8.55;;;4.45;;
56481;SDS011;42384;45.186;19.958;2024-02-15T05:46:13;9.13;;;4.80;;
56481;SDS011;42384;45.186;19.958;2024-02-15T05:48:40;9.32;;;4.60;;
56481;SDS011;42384;45.186;19.958;2024-02-15T05:51:07;8.60;;;4.47;;
56481;SDS011;42384;45.186;19.958;2024-02-15T05:53:34;8.88;;;4.78;;
56481;SDS011;42384;45.186;19.958;2024-02-15T05:56:04;10.02;;;4.97;;
56481;SDS011;42384;45.186;19.958;2024-02-15T05:58:32;8.43;;;4.90;;
56481;SDS011;42384;45.186;19.958;2024-02-15T06:00:58;12.70;;;5.32;;
56481;SDS011;42384;45.186;19.958;2024-02-15T06:03:30;12.52;;;6.32;;
56481;SDS011;42384;45.186;19.958;2024-02-15T06:05:58;10.85;;;6.00;;
56481;SDS011;42384;45.186;19.958;2024-02-15T06:08:27;17.08;;;6.05;;
56481;SDS011;42384;45.186;19.958;2024-02-15T06:10:55;8.23;;;5.43;;
56481;SDS011;42384;45.186;19.958;2024-02-15T06:13:22;13.07;;;6.60;;
56481;SDS011;42384;45.186;19.958;2024-02-15T06:15:48;12.60;;;4.72;;
56481;SDS011;42384;45.186;19.958;2024-02-15T06:18:27;12.60;;;6.07;;
56481;SDS011;42384;45.186;19.958;2024-02-15T06:20:54;10.60;;;6.30;;
56481;SDS011;42384;45.186;19.958;2024-02-15T06:23:27;27.58;;;15.27;;
56481;SDS011;42384;45.186;19.958;2024-02-15T06:25:55;42.95;;;18.50;;
56481;SDS011;42384;45.186;19.958;2024-02-15T06:28:26;17.38;;;10.35;;
56481;SDS011;42384;45.186;19.958;2024-02-15T06:31:11;15.52;;;9.80;;
56481;SDS011;42384;45.186;19.958;2024-02-15T06:33:56;17.05;;;8.68;;
56481;SDS011;42384;45.186;19.958;2024-02-15T06:39:26;16.42;;;9.25;;
56481;SDS011;42384;45.186;19.958;2024-02-15T06:42:08;15.73;;;10.40;;
56481;SDS011;42384;45.186;19.958;2024-02-15T06:44:40;16.90;;;10.40;;
56481;SDS011;42384;45.186;19.958;2024-02-15T06:47:06;15.68;;;9.85;;
56481;SDS011;42384;45.186;19.958;2024-02-15T06:49:38;19.45;;;10.32;;
56481;SDS011;42384;45.186;19.958;2024-02-15T06:52:08;18.50;;;11.27;;
56481;SDS011;42384;45.186;19.958;2024-02-15T06:54:40;21.70;;;12.25;;
56481;SDS011;42384;45.186;19.958;2024-02-15T06:57:07;17.85;;;11.18;;
56481;SDS011;42384;45.186;19.958;2024-02-15T06:59:33;18.10;;;10.37;;
56481;SDS011;42384;45.186;19.958;2024-02-15T07:02:02;17.92;;;11.18;;
56481;SDS011;42384;45.186;19.958;2024-02-15T07:04:30;19.98;;;11.55;;
56481;SDS011;42384;45.186;19.958;2024-02-15T07:06:57;22.90;;;13.43;;
56481;SDS011;42384;45.186;19.958;2024-02-15T07:11:51;13.10;;;6.43;;
56481;SDS011;42384;45.186;19.958;2024-02-15T07:14:17;10.00;;;6.38;;
56481;SDS011;42384;45.186;19.958;2024-02-15T07:19:11;10.95;;;6.10;;
56481;SDS011;42384;45.186;19.958;2024-02-15T07:21:37;11.10;;;5.82;;
56481;SDS011;42384;45.186;19.958;2024-02-15T07:24:03;14.13;;;5.60;;
56481;SDS011;42384;45.186;19.958;2024-02-15T07:26:30;10.95;;;6.05;;
56481;SDS011;42384;45.186;19.958;2024-02-15T07:28:56;8.83;;;5.53;;
56481;SDS011;42384;45.186;19.958;2024-02-15T07:31:22;9.37;;;5.77;;
56481;SDS011;42384;45.186;19.958;2024-02-15T07:33:52;20.30;;;12.48;;
56481;SDS011;42384;45.186;19.958;2024-02-15T07:36:19;17.58;;;11.13;;
56481;SDS011;42384;45.186;19.958;2024-02-15T07:38:47;21.05;;;11.95;;
56481;SDS011;42384;45.186;19.958;2024-02-15T07:41:14;18.38;;;10.73;;
56481;SDS011;42384;45.186;19.958;2024-02-15T07:43:41;22.88;;;11.65;;
56481;SDS011;42384;45.186;19.958;2024-02-15T07:46:11;25.13;;;11.00;;
56481;SDS011;42384;45.186;19.958;2024-02-15T07:48:38;25.17;;;17.20;;
56481;SDS011;42384;45.186;19.958;2024-02-15T07:51:09;25.17;;;17.35;;
56481;SDS011;42384;45.186;19.958;2024-02-15T07:56:02;21.95;;;15.88;;
56481;SDS011;42384;45.186;19.958;2024-02-15T07:58:29;20.90;;;12.45;;
56481;SDS011;42384;45.186;19.958;2024-02-15T08:00:56;19.05;;;10.95;;
56481;SDS011;42384;45.186;19.958;2024-02-15T08:03:24;15.18;;;10.63;;
56481;SDS011;42384;45.186;19.958;2024-02-15T08:05:54;18.13;;;9.70;;
56481;SDS011;42384;45.186;19.958;2024-02-15T08:08:21;14.98;;;10.02;;
56481;SDS011;42384;45.186;19.958;2024-02-15T08:10:47;25.58;;;13.05;;
56481;SDS011;42384;45.186;19.958;2024-02-15T08:13:16;25.98;;;13.90;;
56481;SDS011;42384;45.186;19.958;2024-02-15T08:15:43;19.80;;;12.50;;
56481;SDS011;42384;45.186;19.958;2024-02-15T08:18:11;21.20;;;12.73;;
56481;SDS011;42384;45.186;19.958;2024-02-15T08:20:38;22.73;;;13.13;;
56481;SDS011;42384;45.186;19.958;2024-02-15T08:23:05;24.75;;;13.90;;
56481;SDS011;42384;45.186;19.958;2024-02-15T08:25:32;27.15;;;15.10;;
56481;SDS011;42384;45.186;19.958;2024-02-15T08:27:59;24.05;;;14.88;;
56481;SDS011;42384;45.186;19.958;2024-02-15T08:30:30;23.13;;;14.07;;
56481;SDS011;42384;45.186;19.958;2024-02-15T08:32:56;21.50;;;12.90;;
56481;SDS011;42384;45.186;19.958;2024-02-15T08:35:23;17.98;;;11.35;;
56481;SDS011;42384;45.186;19.958;2024-02-15T08:37:49;30.50;;;17.63;;
56481;SDS011;42384;45.186;19.958;2024-02-15T08:40:18;29.00;;;16.52;;
56481;SDS011;42384;45.186;19.958;2024-02-15T08:42:50;20.38;;;13.80;;
56481;SDS011;42384;45.186;19.958;2024-02-15T08:45:16;27.57;;;15.13;;
56481;SDS011;42384;45.186;19.958;2024-02-15T08:47:42;23.92;;;13.40;;
56481;SDS011;42384;45.186;19.958;2024-02-15T08:50:11;28.60;;;14.43;;
56481;SDS011;42384;45.186;19.958;2024-02-15T08:52:37;24.98;;;14.68;;
56481;SDS011;42384;45.186;19.958;2024-02-15T08:55:07;20.65;;;12.70;;
56481;SDS011;42384;45.186;19.958;2024-02-15T08:57:35;20.60;;;12.75;;
56481;SDS011;42384;45.186;19.958;2024-02-15T09:00:02;19.05;;;11.68;;
56481;SDS011;42384;45.186;19.958;2024-02-15T09:02:38;20.98;;;11.90;;
56481;SDS011;42384;45.186;19.958;2024-02-15T09:05:05;16.35;;;11.77;;
56481;SDS011;42384;45.186;19.958;2024-02-15T09:07:32;19.23;;;11.80;;
56481;SDS011;42384;45.186;19.958;2024-02-15T09:09:58;48.15;;;27.52;;
56481;SDS011;42384;45.186;19.958;2024-02-15T09:12:25;18.83;;;11.02;;
56481;SDS011;42384;45.186;19.958;2024-02-15T09:14:51;19.23;;;10.95;;
56481;SDS011;42384;45.186;19.958;2024-02-15T09:17:17;23.88;;;12.55;;
56481;SDS011;42384;45.186;19.958;2024-02-15T09:19:46;23.63;;;12.07;;
56481;SDS011;42384;45.186;19.958;2024-02-15T09:22:14;16.83;;;10.75;;
56481;SDS011;42384;45.186;19.958;2024-02-15T09:24:41;16.02;;;11.13;;
56481;SDS011;42384;45.186;19.958;2024-02-15T09:27:07;14.75;;;10.70;;
56481;SDS011;42384;45.186;19.958;2024-02-15T09:29:37;18.85;;;11.35;;
56481;SDS011;42384;45.186;19.958;2024-02-15T09:32:05;17.80;;;11.43;;
56481;SDS011;42384;45.186;19.958;2024-02-15T09:34:31;19.13;;;11.35;;
56481;SDS011;42384;45.186;19.958;2024-02-15T09:36:58;14.35;;;10.65;;
56481;SDS011;42384;45.186;19.958;2024-02-15T09:39:24;14.05;;;9.93;;
56481;SDS011;42384;45.186;19.958;2024-02-15T09:41:50;16.42;;;10.27;;
56481;SDS011;42384;45.186;19.958;2024-02-15T09:44:23;16.10;;;9.65;;
56481;SDS011;42384;45.186;19.958;2024-02-15T09:47:02;12.50;;;8.68;;
56481;SDS011;42384;45.186;19.958;2024-02-15T09:51:56;12.18;;;8.35;;
56481;SDS011;42384;45.186;19.958;2024-02-15T09:54:25;15.77;;;10.23;;
56481;SDS011;42384;45.186;19.958;2024-02-15T09:56:51;10.60;;;6.83;;
56481;SDS011;42384;45.186;19.958;2024-02-15T09:59:18;11.70;;;6.95;;
56481;SDS011;42384;45.186;19.958;2024-02-15T10:01:45;10.93;;;6.07;;
56481;SDS011;42384;45.186;19.958;2024-02-15T10:04:13;14.55;;;7.05;;
56481;SDS011;42384;45.186;19.958;2024-02-15T10:06:41;11.60;;;6.88;;
56481;SDS011;42384;45.186;19.958;2024-02-15T10:11:53;13.50;;;5.38;;
56481;SDS011;42384;45.186;19.958;2024-02-15T10:14:23;10.20;;;5.68;;
56481;SDS011;42384;45.186;19.958;2024-02-15T10:19:15;9.95;;;4.60;;
56481;SDS011;42384;45.186;19.958;2024-02-15T10:21:43;11.70;;;6.00;;
56481;SDS011;42384;45.186;19.958;2024-02-15T10:24:09;11.40;;;6.60;;
56481;SDS011;42384;45.186;19.958;2024-02-15T10:26:36;12.73;;;7.10;;
56481;SDS011;42384;45.186;19.958;2024-02-15T10:29:05;9.98;;;6.68;;
56481;SDS011;42384;45.186;19.958;2024-02-15T10:31:36;12.43;;;7.97;;
56481;SDS011;42384;45.186;19.958;2024-02-15T10:34:03;13.15;;;7.70;;
56481;SDS011;42384;45.186;19.958;2024-02-15T10:36:30;12.43;;;7.53;;
56481;SDS011;42384;45.186;19.958;2024-02-15T10:39:15;12.02;;;7.68;;
56481;SDS011;42384;45.186;19.958;2024-02-15T10:41:53;13.30;;;7.82;;
56481;SDS011;42384;45.186;19.958;2024-02-15T10:44:20;13.55;;;6.85;;
56481;SDS011;42384;45.186;19.958;2024-02-15T10:46:48;10.52;;;6.22;;
56481;SDS011;42384;45.186;19.958;2024-02-15T10:49:18;11.40;;;7.13;;
56481;SDS011;42384;45.186;19.958;2024-02-15T10:51:45;11.00;;;7.30;;
56481;SDS011;42384;45.186;19.958;2024-02-15T10:54:15;14.02;;;6.72;;
56481;SDS011;42384;45.186;19.958;2024-02-15T10:56:45;10.00;;;6.53;;
56481;SDS011;42384;45.186;19.958;2024-02-15T10:59:19;15.32;;;7.88;;
56481;SDS011;42384;45.186;19.958;2024-02-15T11:01:45;9.25;;;6.45;;
56481;SDS011;42384;45.186;19.958;2024-02-15T11:04:14;15.60;;;7.55;;
56481;SDS011;42384;45.186;19.958;2024-02-15T11:06:41;10.98;;;6.25;;
56481;SDS011;42384;45.186;19.958;2024-02-15T11:09:11;14.95;;;9.00;;
56481;SDS011;42384;45.186;19.958;2024-02-15T11:11:39;16.38;;;7.97;;
56481;SDS011;42384;45.186;19.958;2024-02-15T11:16:50;14.75;;;7.35;;
56481;SDS011;42384;45.186;19.958;2024-02-15T11:21:58;13.77;;;7.47;;
56481;SDS011;42384;45.186;19.958;2024-02-15T11:24:29;10.73;;;7.45;;
56481;SDS011;42384;45.186;19.958;2024-02-15T11:27:00;12.55;;;8.13;;
56481;SDS011;42384;45.186;19.958;2024-02-15T11:35:06;12.18;;;4.97;;
56481;SDS011;42384;45.186;19.958;2024-02-15T11:40:18;10.50;;;6.07;;
56481;SDS011;42384;45.186;19.958;2024-02-15T11:42:44;12.93;;;6.05;;
56481;SDS011;42384;45.186;19.958;2024-02-15T11:45:15;12.95;;;6.65;;
56481;SDS011;42384;45.186;19.958;2024-02-15T11:47:47;8.27;;;4.20;;
56481;SDS011;42384;45.186;19.958;2024-02-15T11:50:15;8.60;;;4.63;;
56481;SDS011;42384;45.186;19.958;2024-02-15T11:52:43;7.68;;;4.07;;
56481;SDS011;42384;45.186;19.958;2024-02-15T11:55:11;7.85;;;5.28;;
56481;SDS011;42384;45.186;19.958;2024-02-15T11:57:40;12.25;;;6.25;;
56481;SDS011;42384;45.186;19.958;2024-02-15T12:00:22;8.75;;;5.10;;
56481;SDS011;42384;45.186;19.958;2024-02-15T12:03:07;10.30;;;5.63;;
56481;SDS011;42384;45.186;19.958;2024-02-15T12:05:53;10.85;;;6.40;;
56481;SDS011;42384;45.186;19.958;2024-02-15T12:08:38;14.90;;;6.13;;
56481;SDS011;42384;45.186;19.958;2024-02-15T12:11:23;12.63;;;5.10;;
56481;SDS011;42384;45.186;19.958;2024-02-15T12:14:12;7.70;;;4.72;;
56481;SDS011;42384;45.186;19.958;2024-02-15T12:17:03;10.70;;;5.82;;
56481;SDS011;42384;45.186;19.958;2024-02-15T12:19:49;10.00;;;5.85;;
56481;SDS011;42384;45.186;19.958;2024-02-15T12:22:32;8.90;;;4.00;;
56481;SDS011;42384;45.186;19.958;2024-02-15T12:24:59;11.00;;;5.32;;
56481;SDS011;42384;45.186;19.958;2024-02-15T12:30:01;11.55;;;5.82;;
56481;SDS011;42384;45.186;19.958;2024-02-15T12:32:31;11.18;;;6.13;;
56481;SDS011;42384;45.186;19.958;2024-02-15T12:35:10;11.80;;;6.05;;
56481;SDS011;42384;45.186;19.958;2024-02-15T12:37:41;10.93;;;5.57;;
56481;SDS011;42384;45.186;19.958;2024-02-15T12:40:11;11.38;;;5.70;;
56481;SDS011;42384;45.186;19.958;2024-02-15T12:42:44;11.02;;;6.10;;
56481;SDS011;42384;45.186;19.958;2024-02-15T12:45:18;11.70;;;6.40;;
56481;SDS011;42384;45.186;19.958;2024-02-15T12:47:51;12.05;;;6.38;;
56481;SDS011;42384;45.186;19.958;2024-02-15T12:50:18;10.38;;;6.90;;
56481;SDS011;42384;45.186;19.958;2024-02-15T12:52:45;13.82;;;6.93;;
56481;SDS011;42384;45.186;19.958;2024-02-15T12:55:18;15.05;;;6.72;;
56481;SDS011;42384;45.186;19.958;2024-02-15T12:57:45;16.17;;;6.53;;
56481;SDS011;42384;45.186;19.958;2024-02-15T13:00:13;14.43;;;6.60;;
56481;SDS011;42384;45.186;19.958;2024-02-15T13:02:43;9.95;;;5.40;;
56481;SDS011;42384;45.186;19.958;2024-02-15T13:05:10;11.77;;;5.60;;
56481;SDS011;42384;45.186;19.958;2024-02-15T13:07:37;11.43;;;6.88;;
56481;SDS011;42384;45.186;19.958;2024-02-15T13:10:04;10.15;;;6.35;;
56481;SDS011;42384;45.186;19.958;2024-02-15T13:12:36;16.83;;;6.38;;
56481;SDS011;42384;45.186;19.958;2024-02-15T13:15:05;8.80;;;5.53;;
56481;SDS011;42384;45.186;19.958;2024-02-15T13:17:37;9.57;;;5.82;;
56481;SDS011;42384;45.186;19.958;2024-02-15T13:20:04;11.65;;;5.45;;
56481;SDS011;42384;45.186;19.958;2024-02-15T13:22:31;10.50;;;5.47;;
56481;SDS011;42384;45.186;19.958;2024-02-15T13:24:58;10.48;;;6.10;;
56481;SDS011;42384;45.186;19.958;2024-02-15T13:27:25;11.73;;;6.30;;
56481;SDS011;42384;45.186;19.958;2024-02-15T13:29:51;8.30;;;5.13;;
56481;SDS011;42384;45.186;19.958;2024-02-15T13:32:18;8.77;;;4.90;;
56481;SDS011;42384;45.186;19.958;2024-02-15T13:34:47;12.43;;;6.32;;
56481;SDS011;42384;45.186;19.958;2024-02-15T13:37:19;12.00;;;5.82;;
56481;SDS011;42384;45.186;19.958;2024-02-15T13:39:49;11.10;;;5.70;;
56481;SDS011;42384;45.186;19.958;2024-02-15T13:42:16;10.35;;;5.65;;
56481;SDS011;42384;45.186;19.958;2024-02-15T13:44:44;14.23;;;6.32;;
56481;SDS011;42384;45.186;19.958;2024-02-15T13:47:11;9.18;;;5.78;;
56481;SDS011;42384;45.186;19.958;2024-02-15T13:49:38;12.57;;;5.37;;
56481;SDS011;42384;45.186;19.958;2024-02-15T13:52:05;13.18;;;6.05;;
56481;SDS011;42384;45.186;19.958;2024-02-15T13:54:32;10.38;;;5.00;;
56481;SDS011;42384;45.186;19.958;2024-02-15T13:56:59;11.90;;;6.38;;
56481;SDS011;42384;45.186;19.958;2024-02-15T13:59:27;12.63;;;6.57;;
56481;SDS011;42384;45.186;19.958;2024-02-15T14:01:53;12.27;;;6.13;;
56481;SDS011;42384;45.186;19.958;2024-02-15T14:04:20;14.17;;;6.30;;
56481;SDS011;42384;45.186;19.958;2024-02-15T14:06:47;8.70;;;5.72;;
56481;SDS011;42384;45.186;19.958;2024-02-15T14:09:14;12.95;;;5.88;;
56481;SDS011;42384;45.186;19.958;2024-02-15T14:11:42;12.85;;;5.93;;
56481;SDS011;42384;45.186;19.958;2024-02-15T14:14:09;11.40;;;6.53;;
56481;SDS011;42384;45.186;19.958;2024-02-15T14:16:35;10.33;;;6.20;;
56481;SDS011;42384;45.186;19.958;2024-02-15T14:19:01;10.55;;;6.40;;
56481;SDS011;42384;45.186;19.958;2024-02-15T14:21:29;10.15;;;5.47;;
56481;SDS011;42384;45.186;19.958;2024-02-15T14:23:59;10.25;;;6.70;;
56481;SDS011;42384;45.186;19.958;2024-02-15T14:26:30;11.35;;;6.60;;
56481;SDS011;42384;45.186;19.958;2024-02-15T14:28:56;10.80;;;6.82;;
56481;SDS011;42384;45.186;19.958;2024-02-15T14:31:22;12.20;;;6.30;;
56481;SDS011;42384;45.186;19.958;2024-02-15T14:34:07;15.55;;;6.35;;
56481;SDS011;42384;45.186;19.958;2024-02-15T14:36:34;12.90;;;7.18;;
56481;SDS011;42384;45.186;19.958;2024-02-15T14:39:01;11.20;;;6.28;;
56481;SDS011;42384;45.186;19.958;2024-02-15T14:41:28;10.65;;;5.40;;
56481;SDS011;42384;45.186;19.958;2024-02-15T14:43:54;9.55;;;5.55;;
56481;SDS011;42384;45.186;19.958;2024-02-15T14:46:21;12.10;;;6.30;;
56481;SDS011;42384;45.186;19.958;2024-02-15T14:48:49;14.23;;;6.53;;
56481;SDS011;42384;45.186;19.958;2024-02-15T14:51:15;8.57;;;5.70;;
56481;SDS011;42384;45.186;19.958;2024-02-15T14:53:45;13.00;;;6.05;;
56481;SDS011;42384;45.186;19.958;2024-02-15T14:56:11;21.55;;;8.73;;
56481;SDS011;42384;45.186;19.958;2024-02-15T14:58:38;12.35;;;6.70;;
56481;SDS011;42384;45.186;19.958;2024-02-15T15:01:05;13.75;;;6.53;;
56481;SDS011;42384;45.186;19.958;2024-02-15T15:06:00;12.80;;;5.97;;
56481;SDS011;42384;45.186;19.958;2024-02-15T15:08:45;9.70;;;6.10;;
56481;SDS011;42384;45.186;19.958;2024-02-15T15:11:29;11.23;;;6.32;;
56481;SDS011;42384;45.186;19.958;2024-02-15T15:14:14;12.93;;;6.00;;
56481;SDS011;42384;45.186;19.958;2024-02-15T15:16:41;9.93;;;5.90;;
56481;SDS011;42384;45.186;19.958;2024-02-15T15:19:07;14.95;;;8.32;;
56481;SDS011;42384;45.186;19.958;2024-02-15T15:21:33;25.40;;;12.17;;
56481;SDS011;42384;45.186;19.958;2024-02-15T15:23:59;17.27;;;8.30;;
56481;SDS011;42384;45.186;19.958;2024-02-15T15:26:25;25.85;;;13.25;;